Time;durP1;ratioP1;P1;durP2;ratioP2;P2;SDS_P1;SDS_P2;PMS_P1;PMS_P2;Temp;Humidity;BMP_temperature;BMP_pressure;BME280_temperature;BME280_humidity;BME280_pressure;Samples;Min_cycle;Max_cycle;Signal;HPM_P1;HPM_P2
2022/03/10 00:00:49;;;;;;;0.25;0.25;;;1.70;99.90;;;;;;5096644;28;20077;-82
2022/03/10 00:03:17;;;;;;;0.30;0.30;;;1.30;99.90;;;;;;5096183;28;20040;-83
2022/03/10 00:05:44;;;;;;;0.25;0.25;;;1.20;99.90;;;;;;5080725;28;20040;-80
2022/03/10 00:08:11;;;;;;;0.22;0.22;;;0.80;99.90;;;;;;5095188;28;20507;-82
2022/03/10 00:10:37;;;;;;;0.40;0.40;;;0.80;99.90;;;;;;5080174;28;20096;-80
2022/03/10 00:13:04;;;;;;;0.30;0.30;;;1.60;99.90;;;;;;5079773;28;20150;-80
2022/03/10 00:15:31;;;;;;;0.30;0.30;;;1.10;99.90;;;;;;5112555;28;20043;-79
2022/03/10 00:18:02;;;;;;;0.30;0.30;;;0.70;99.90;;;;;;5096257;28;20081;-83
2022/03/10 00:20:28;;;;;;;0.22;0.22;;;0.70;99.90;;;;;;5080744;28;20126;-80
2022/03/10 00:22:56;;;;;;;0.22;0.22;;;0.70;99.90;;;;;;5095832;28;20143;-83
2022/03/10 00:25:24;;;;;;;0.30;0.30;;;0.70;99.90;;;;;;5096088;28;20412;-80
2022/03/10 00:27:51;;;;;;;0.20;0.20;;;0.60;99.90;;;;;;5096345;28;20028;-79
2022/03/10 00:30:18;;;;;;;0.30;0.30;;;1.30;99.90;;;;;;5112796;28;20054;-83
2022/03/10 00:32:48;;;;;;;0.30;0.30;;;0.90;99.90;;;;;;5129723;28;20090;-83
2022/03/10 00:35:22;;;;;;;0.20;0.20;;;0.60;99.90;;;;;;5129724;28;20046;-83
2022/03/10 00:37:49;;;;;;;0.20;0.20;;;0.60;99.90;;;;;;5097178;28;20042;-80
2022/03/10 00:40:17;;;;;;;0.30;0.30;;;0.80;99.90;;;;;;5079292;28;20122;-83
2022/03/10 00:42:44;;;;;;;0.30;0.30;;;0.50;99.90;;;;;;5112992;28;20048;-80
2022/03/10 00:45:11;;;;;;;0.35;0.35;;;0.50;99.90;;;;;;5096207;28;20040;-82
2022/03/10 00:47:39;;;;;;;0.30;0.30;;;0.60;99.90;;;;;;5096296;28;20078;-79
2022/03/10 00:50:07;;;;;;;0.30;0.30;;;0.40;99.90;;;;;;5112935;28;20083;-83
2022/03/10 00:52:45;;;;;;;0.22;0.22;;;0.40;99.90;;;;;;5096094;28;20510;-83
2022/03/10 00:55:15;;;;;;;0.30;0.30;;;0.40;99.90;;;;;;5095763;28;20039;-82
2022/03/10 00:57:42;;;;;;;0.30;0.30;;;0.40;99.90;;;;;;5112891;28;20043;-83
2022/03/10 01:00:10;;;;;;;0.30;0.30;;;0.40;99.90;;;;;;5112681;28;20045;-80
2022/03/10 01:02:37;;;;;;;0.30;0.30;;;0.30;99.90;;;;;;5095647;28;20145;-82
2022/03/10 01:05:04;;;;;;;0.22;0.22;;;0.80;99.90;;;;;;5096062;28;20056;-80
2022/03/10 01:07:31;;;;;;;0.20;0.20;;;0.40;99.90;;;;;;5112233;28;20039;-83
2022/03/10 01:09:58;;;;;;;0.20;0.20;;;0.60;99.90;;;;;;5112505;28;20100;-83
2022/03/10 01:12:25;;;;;;;0.30;0.30;;;0.30;99.90;;;;;;5095448;28;20040;-82
2022/03/10 01:14:52;;;;;;;0.30;0.30;;;0.40;99.90;;;;;;5095679;28;20128;-83
2022/03/10 01:17:19;;;;;;;0.20;0.20;;;0.70;99.90;;;;;;5112238;28;20404;-80
2022/03/10 01:19:47;;;;;;;0.40;0.40;;;0.20;99.90;;;;;;5081279;28;20039;-80
2022/03/10 01:22:13;;;;;;;0.35;0.35;;;0.20;99.90;;;;;;5082991;28;20138;-79
2022/03/10 01:24:41;;;;;;;0.30;0.30;;;0.70;99.90;;;;;;5099524;28;20126;-80
2022/03/10 01:27:09;;;;;;;0.52;0.52;;;0.20;99.90;;;;;;5099718;28;20458;-80
2022/03/10 01:29:35;;;;;;;0.20;0.20;;;0.10;99.90;;;;;;5082578;28;21074;-82
2022/03/10 01:32:04;;;;;;;0.30;0.30;;;0.10;99.90;;;;;;5100147;28;20048;-81
2022/03/10 01:34:30;;;;;;;0.30;0.30;;;0.10;99.90;;;;;;5115793;28;20100;-79
2022/03/10 01:36:57;;;;;;;0.30;0.30;;;0.10;99.90;;;;;;5099873;28;20036;-83
2022/03/10 01:39:25;;;;;;;0.30;0.30;;;0.80;99.90;;;;;;5082685;28;20458;-83
2022/03/10 01:41:52;;;;;;;0.30;0.30;;;1.30;99.90;;;;;;5099215;28;20050;-83
2022/03/10 01:44:21;;;;;;;0.20;0.20;;;0.70;99.90;;;;;;5098922;28;20635;-80
2022/03/10 01:46:47;;;;;;;0.20;0.20;;;1.20;99.90;;;;;;5099437;28;20475;-80
2022/03/10 01:49:15;;;;;;;0.30;0.30;;;0.10;99.90;;;;;;5082275;28;20082;-83
2022/03/10 01:51:42;;;;;;;0.25;0.25;;;0.10;99.90;;;;;;5115638;28;20051;-79
2022/03/10 01:54:09;;;;;;;0.30;0.30;;;1.20;99.90;;;;;;5115584;28;20043;-82
2022/03/10 01:56:37;;;;;;;0.30;0.30;;;0.40;99.90;;;;;;5115492;28;20122;-82
2022/03/10 01:59:04;;;;;;;0.30;0.30;;;0.10;99.90;;;;;;5115734;28;20040;-80
2022/03/10 02:01:31;;;;;;;0.30;0.30;;;0.40;99.90;;;;;;5115527;28;20035;-83
2022/03/10 02:03:59;;;;;;;0.20;0.20;;;0.70;99.90;;;;;;5082339;28;20054;-80
2022/03/10 02:06:25;;;;;;;0.40;0.40;;;0.10;99.90;;;;;;5098527;28;20040;-80
2022/03/10 02:11:41;;;;;;;0.30;0.30;;;0.10;99.90;;;;;;5117346;28;20051;-80
2022/03/10 02:19:39;;;;;;;0.20;0.20;;;0.20;99.90;;;;;;5103478;28;20082;-79
2022/03/10 02:22:13;;;;;;;0.20;0.20;;;0.50;99.90;;;;;;5081909;28;20063;-79
2022/03/10 02:24:42;;;;;;;0.30;0.30;;;0.10;99.90;;;;;;5097976;28;20044;-79
2022/03/10 02:27:22;;;;;;;0.30;0.30;;;0.10;99.90;;;;;;5115307;28;20035;-83
2022/03/10 02:29:52;;;;;;;0.30;0.30;;;0.00;99.90;;;;;;5115075;28;20094;-83
2022/03/10 02:32:20;;;;;;;0.30;0.30;;;0.00;99.90;;;;;;5114013;28;20039;-80
2022/03/10 02:34:48;;;;;;;0.30;0.30;;;0.70;99.90;;;;;;5114685;28;20292;-80
2022/03/10 02:37:16;;;;;;;0.30;0.30;;;0.00;99.90;;;;;;5115029;28;20454;-79
2022/03/10 02:39:44;;;;;;;0.30;0.30;;;0.40;99.90;;;;;;5114878;28;20047;-79
2022/03/10 02:42:12;;;;;;;0.30;0.30;;;0.00;99.90;;;;;;5098545;28;20130;-79
2022/03/10 02:44:44;;;;;;;0.30;0.30;;;0.50;99.90;;;;;;5114660;28;20036;-82
2022/03/10 02:47:11;;;;;;;0.30;0.30;;;-0.10;99.90;;;;;;5098524;28;20550;-80
2022/03/10 02:49:39;;;;;;;0.30;0.30;;;0.00;99.90;;;;;;5098301;28;20138;-80
2022/03/10 02:52:06;;;;;;;0.30;0.30;;;0.60;99.90;;;;;;5131224;28;20092;-83
2022/03/10 02:54:33;;;;;;;0.30;0.30;;;1.30;99.90;;;;;;5097483;28;20040;-80
2022/03/10 02:57:00;;;;;;;0.30;0.30;;;0.60;99.90;;;;;;5114636;28;20039;-82
2022/03/10 02:59:27;;;;;;;0.30;0.30;;;0.80;99.90;;;;;;5097564;28;20130;-80
2022/03/10 03:01:56;;;;;;;0.30;0.30;;;1.00;99.90;;;;;;5081039;28;20043;-80
2022/03/10 03:04:23;;;;;;;0.30;0.30;;;0.70;99.90;;;;;;5114241;28;20042;-82
2022/03/10 03:06:49;;;;;;;0.30;0.30;;;0.40;99.90;;;;;;5088756;27;20034;-79
2022/03/10 03:09:16;;;;;;;0.30;0.30;;;-0.20;99.90;;;;;;5123309;27;20039;-84
2022/03/10 03:11:43;;;;;;;0.30;0.30;;;-0.20;99.90;;;;;;5134266;27;20036;-80
2022/03/10 03:14:10;;;;;;;0.30;0.30;;;-0.30;99.90;;;;;;5134265;27;20095;-82
2022/03/10 03:16:39;;;;;;;0.30;0.30;;;-0.30;99.90;;;;;;5133911;27;20031;-80
2022/03/10 03:19:06;;;;;;;0.30;0.30;;;-0.30;99.90;;;;;;5134841;27;20118;-82
2022/03/10 03:21:33;;;;;;;0.30;0.30;;;0.10;99.90;;;;;;5117436;27;20085;-80
2022/03/10 03:24:00;;;;;;;0.30;0.30;;;-0.30;99.90;;;;;;5134169;27;20038;-82
2022/03/10 03:26:26;;;;;;;0.30;0.30;;;-0.30;99.90;;;;;;5117654;27;20074;-80
2022/03/10 03:28:53;;;;;;;0.22;0.22;;;-0.30;99.90;;;;;;5117026;27;20665;-83
2022/03/10 03:31:21;;;;;;;0.20;0.20;;;-0.30;99.90;;;;;;5151212;27;20039;-80
2022/03/10 03:33:50;;;;;;;0.30;0.30;;;-0.30;99.90;;;;;;5134080;27;20046;-82
2022/03/10 03:36:17;;;;;;;0.30;0.30;;;-0.30;99.90;;;;;;5101211;27;20035;-80
2022/03/10 03:38:43;;;;;;;0.32;0.32;;;-0.30;99.90;;;;;;5100340;27;20070;-79
2022/03/10 03:41:10;;;;;;;0.30;0.30;;;-0.30;99.90;;;;;;5100979;27;20078;-79
2022/03/10 03:43:37;;;;;;;0.30;0.30;;;-0.40;99.90;;;;;;5099963;27;20039;-82
2022/03/10 03:46:04;;;;;;;0.30;0.30;;;-0.40;99.90;;;;;;5116845;27;20046;-83
2022/03/10 03:48:30;;;;;;;0.40;0.40;;;0.00;99.90;;;;;;5133617;27;20046;-80
2022/03/10 03:50:57;;;;;;;0.30;0.30;;;-0.40;99.90;;;;;;5132814;27;20042;-80
2022/03/10 03:53:24;;;;;;;0.28;0.28;;;-0.30;99.90;;;;;;5100236;27;20036;-82
2022/03/10 03:55:51;;;;;;;0.30;0.30;;;-0.30;99.90;;;;;;5100366;27;20041;-82
2022/03/10 03:58:19;;;;;;;0.30;0.30;;;0.80;99.90;;;;;;5116798;27;20488;-80
2022/03/10 04:00:46;;;;;;;0.30;0.30;;;-0.30;99.90;;;;;;5100174;27;20507;-82
2022/03/10 04:03:13;;;;;;;0.28;0.28;;;0.60;99.90;;;;;;5133242;27;20074;-82
2022/03/10 04:05:40;;;;;;;0.30;0.30;;;-0.30;99.90;;;;;;5116400;28;20035;-80
2022/03/10 04:08:07;;;;;;;0.30;0.30;;;0.10;99.90;;;;;;5116973;27;20039;-83
2022/03/10 04:10:34;;;;;;;0.30;0.30;;;-0.30;99.90;;;;;;5133286;27;20483;-80
2022/03/10 04:13:01;;;;;;;0.30;0.30;;;-0.30;99.90;;;;;;5116846;27;20035;-82
2022/03/10 04:15:28;;;;;;;0.20;0.20;;;0.60;99.90;;;;;;5116537;28;20049;-83
2022/03/10 04:17:55;;;;;;;0.30;0.30;;;-0.30;99.90;;;;;;5116329;27;20046;-80
2022/03/10 04:20:22;;;;;;;0.30;0.30;;;-0.40;99.90;;;;;;5116537;28;20549;-82
2022/03/10 04:22:49;;;;;;;0.25;0.25;;;-0.40;99.90;;;;;;5099884;28;20039;-82
2022/03/10 04:25:15;;;;;;;0.30;0.30;;;-0.10;99.90;;;;;;5133610;28;20399;-82
2022/03/10 04:27:42;;;;;;;1.45;1.35;;;-0.40;99.90;;;;;;5099399;28;20091;-80
2022/03/10 04:30:10;;;;;;;0.30;0.30;;;0.40;99.90;;;;;;5116340;28;20058;-80
2022/03/10 04:32:45;;;;;;;0.30;0.30;;;-0.50;99.90;;;;;;5100002;28;20079;-79
2022/03/10 04:35:14;;;;;;;0.30;0.30;;;-0.50;99.90;;;;;;5133854;28;20134;-82
2022/03/10 04:37:41;;;;;;;0.30;0.30;;;-0.50;99.90;;;;;;5133116;28;20031;-80
2022/03/10 04:40:09;;;;;;;0.30;0.30;;;0.70;99.90;;;;;;5133311;28;20380;-80
2022/03/10 04:42:37;;;;;;;0.40;0.40;;;-0.50;99.90;;;;;;5100134;28;20035;-80
2022/03/10 04:45:06;;;;;;;0.30;0.30;;;0.60;99.90;;;;;;5133107;28;20043;-82
2022/03/10 04:47:34;;;;;;;0.30;0.30;;;-0.50;99.90;;;;;;5116756;28;20039;-82
2022/03/10 04:50:05;;;;;;;0.45;0.45;;;0.80;99.90;;;;;;5116088;28;20503;-79
2022/03/10 04:52:32;;;;;;;0.30;0.30;;;-0.20;99.90;;;;;;5133661;28;20108;-79
2022/03/10 04:54:59;;;;;;;0.30;0.30;;;-0.60;99.90;;;;;;5101653;27;20484;-82
2022/03/10 04:57:26;;;;;;;0.20;0.20;;;-0.50;99.90;;;;;;5137502;27;20092;-80
2022/03/10 04:59:53;;;;;;;0.30;0.30;;;-0.60;99.90;;;;;;5136890;27;20038;-79
2022/03/10 05:02:19;;;;;;;0.40;0.40;;;0.00;99.90;;;;;;5120468;27;20039;-82
2022/03/10 05:04:46;;;;;;;0.30;0.30;;;-0.60;99.90;;;;;;5119686;27;20406;-82
2022/03/10 05:07:13;;;;;;;0.30;0.30;;;-0.60;99.90;;;;;;5136986;27;20057;-82
2022/03/10 05:09:40;;;;;;;0.40;0.40;;;0.70;99.90;;;;;;5120083;27;20046;-79
2022/03/10 05:12:07;;;;;;;0.40;0.40;;;0.50;99.90;;;;;;5136719;27;20031;-82
2022/03/10 05:14:34;;;;;;;0.30;0.30;;;-0.60;99.90;;;;;;5137371;27;20415;-80
2022/03/10 05:17:00;;;;;;;0.30;0.30;;;-0.60;99.90;;;;;;5119449;27;20039;-83
2022/03/10 05:19:27;;;;;;;0.30;0.30;;;-0.60;99.90;;;;;;5136796;27;20039;-82
2022/03/10 05:21:54;;;;;;;0.30;0.30;;;-0.60;99.90;;;;;;5103379;27;20484;-82
2022/03/10 05:24:20;;;;;;;0.40;0.40;;;-0.60;99.90;;;;;;5120049;27;20476;-80
2022/03/10 05:26:47;;;;;;;0.30;0.30;;;-0.20;99.90;;;;;;5102920;27;20042;-82
2022/03/10 05:29:14;;;;;;;0.30;0.30;;;-0.60;99.90;;;;;;5136317;27;20058;-79
2022/03/10 05:31:41;;;;;;;0.30;0.30;;;-0.60;99.90;;;;;;5119562;27;20082;-82
2022/03/10 05:34:08;;;;;;;0.30;0.30;;;-0.60;99.90;;;;;;5119532;27;20039;-82
2022/03/10 05:36:34;;;;;;;0.30;0.30;;;-0.60;99.90;;;;;;5102854;27;20474;-80
2022/03/10 05:39:01;;;;;;;0.28;0.28;;;-0.60;99.90;;;;;;5135851;27;20145;-82
2022/03/10 05:41:33;;;;;;;0.30;0.30;;;-0.60;99.90;;;;;;5119223;27;20045;-80
2022/03/10 05:44:00;;;;;;;0.30;0.30;;;-0.60;99.90;;;;;;5135770;27;20035;-82
2022/03/10 05:46:26;;;;;;;0.30;0.30;;;-0.60;99.90;;;;;;5102297;27;20093;-82
2022/03/10 05:48:54;;;;;;;0.30;0.30;;;-0.10;99.90;;;;;;5109280;28;20047;-82
2022/03/10 05:51:20;;;;;;;0.20;0.20;;;-0.60;99.90;;;;;;5098441;28;20101;-82
2022/03/10 05:53:51;;;;;;;0.30;0.30;;;0.40;99.90;;;;;;5149019;28;20031;-81
2022/03/10 05:56:18;;;;;;;0.40;0.40;;;0.70;99.90;;;;;;5147305;27;20089;-83
2022/03/10 05:58:45;;;;;;;0.30;0.30;;;0.30;99.90;;;;;;5127858;27;20062;-82
2022/03/10 06:01:13;;;;;;;0.30;0.30;;;-0.40;99.90;;;;;;5092979;28;20031;-82
2022/03/10 06:03:41;;;;;;;0.30;0.30;;;-0.40;99.90;;;;;;5117377;27;20499;-82
2022/03/10 06:06:09;;;;;;;0.32;0.32;;;-0.40;99.90;;;;;;5111492;27;20476;-79
2022/03/10 06:08:35;;;;;;;0.38;0.38;;;-0.40;99.90;;;;;;5102580;27;20122;-80
2022/03/10 06:11:04;;;;;;;0.30;0.30;;;-0.30;99.90;;;;;;5118763;27;20126;-80
2022/03/10 06:13:32;;;;;;;0.30;0.30;;;-0.40;99.90;;;;;;5118989;27;20028;-80
2022/03/10 06:16:00;;;;;;;0.30;0.30;;;-0.30;99.90;;;;;;5088514;27;20035;-80
2022/03/10 06:18:27;;;;;;;0.40;0.40;;;0.80;99.90;;;;;;5119081;27;20760;-79
2022/03/10 06:20:54;;;;;;;0.30;0.30;;;0.70;99.90;;;;;;5118367;27;20046;-82
2022/03/10 06:23:20;;;;;;;0.30;0.30;;;-0.30;99.90;;;;;;5135036;28;20031;-82
2022/03/10 06:25:47;;;;;;;0.40;0.40;;;-0.30;99.90;;;;;;5095379;28;20029;-82
2022/03/10 06:28:14;;;;;;;0.30;0.30;;;-0.30;99.90;;;;;;5094835;28;20130;-82
2022/03/10 06:30:41;;;;;;;0.30;0.30;;;-0.30;99.90;;;;;;5078704;27;20047;-83
2022/03/10 06:33:07;;;;;;;0.30;0.30;;;0.40;99.90;;;;;;5120986;27;20048;-82
2022/03/10 06:35:34;;;;;;;0.30;0.30;;;-0.20;99.90;;;;;;5105440;28;20044;-83
2022/03/10 06:38:01;;;;;;;0.20;0.20;;;0.50;99.90;;;;;;5097954;28;20039;-83
2022/03/10 06:40:27;;;;;;;0.32;0.32;;;-0.20;99.90;;;;;;5081188;28;20127;-82
2022/03/10 06:42:55;;;;;;;0.30;0.30;;;-0.10;99.90;;;;;;5114517;28;20050;-81
2022/03/10 06:45:22;;;;;;;0.30;0.30;;;0.00;99.90;;;;;;5098249;28;20491;-80
2022/03/10 06:47:48;;;;;;;0.30;0.30;;;0.00;99.90;;;;;;5081390;28;20130;-82
2022/03/10 06:50:15;;;;;;;0.30;0.30;;;0.10;99.90;;;;;;5097494;28;20031;-80
2022/03/10 06:52:42;;;;;;;0.40;0.40;;;0.20;99.90;;;;;;5098023;28;20081;-80
2022/03/10 06:55:09;;;;;;;0.30;0.30;;;1.10;99.90;;;;;;5097712;28;20054;-79
2022/03/10 06:57:35;;;;;;;0.30;0.30;;;1.00;99.90;;;;;;5097862;28;20031;-80
2022/03/10 07:00:04;;;;;;;0.20;0.20;;;0.70;99.90;;;;;;5081112;28;20092;-80
2022/03/10 07:02:31;;;;;;;0.30;0.30;;;0.60;99.90;;;;;;5097564;28;20032;-80
2022/03/10 07:04:58;;;;;;;0.30;0.30;;;0.70;99.90;;;;;;5081135;28;20043;-82
2022/03/10 07:07:24;;;;;;;0.30;0.30;;;0.80;99.90;;;;;;5114486;28;20388;-82
2022/03/10 07:09:51;;;;;;;0.20;0.20;;;0.80;99.90;;;;;;5081214;28;20438;-79
2022/03/10 07:12:18;;;;;;;0.30;0.30;;;0.90;99.90;;;;;;5114252;28;20402;-83
2022/03/10 07:14:44;;;;;;;0.25;0.25;;;0.90;99.90;;;;;;5115433;28;20043;-79
2022/03/10 07:17:12;;;;;;;0.30;0.30;;;1.00;99.90;;;;;;5081294;28;20122;-80
2022/03/10 07:19:38;;;;;;;0.30;0.30;;;2.30;99.90;;;;;;5081002;28;20054;-82
2022/03/10 07:22:05;;;;;;;0.20;0.20;;;1.20;99.90;;;;;;5080777;28;20043;-82
2022/03/10 07:24:32;;;;;;;0.30;0.30;;;1.30;99.90;;;;;;5097082;28;20040;-80
2022/03/10 07:26:59;;;;;;;0.30;0.30;;;1.30;99.90;;;;;;5080660;28;20130;-80
2022/03/10 07:29:26;;;;;;;0.25;0.25;;;2.10;99.90;;;;;;5096947;28;20100;-82
2022/03/10 07:31:52;;;;;;;0.20;0.20;;;1.60;99.90;;;;;;5080520;28;20541;-80
2022/03/10 07:34:22;;;;;;;0.30;0.30;;;2.10;99.90;;;;;;5096543;28;20047;-80
2022/03/10 07:36:49;;;;;;;0.30;0.30;;;1.70;99.90;;;;;;5114207;28;20044;-80
2022/03/10 07:39:16;;;;;;;0.20;0.20;;;1.70;99.90;;;;;;5099386;28;20097;-80
2022/03/10 07:41:42;;;;;;;0.30;0.30;;;1.90;99.90;;;;;;5096866;27;20038;-81
2022/03/10 07:44:09;;;;;;;0.38;0.38;;;2.00;99.90;;;;;;5079686;28;20089;-80
2022/03/10 07:46:36;;;;;;;0.35;0.35;;;2.00;99.90;;;;;;5108782;28;20046;-81
2022/03/10 07:49:04;;;;;;;0.20;0.20;;;2.00;99.90;;;;;;5080237;28;20047;-80
2022/03/10 07:51:31;;;;;;;0.20;0.20;;;2.20;99.90;;;;;;5115501;28;20089;-82
2022/03/10 07:53:58;;;;;;;0.28;0.28;;;2.30;99.90;;;;;;5116757;28;20047;-80
2022/03/10 07:56:25;;;;;;;0.30;0.30;;;2.70;99.90;;;;;;5076216;28;20032;-82
2022/03/10 07:58:51;;;;;;;0.30;0.30;;;3.10;99.90;;;;;;5120862;27;20127;-82
2022/03/10 08:01:18;;;;;;;0.22;0.22;;;2.60;99.90;;;;;;5099873;27;20043;-82
2022/03/10 08:03:48;;;;;;;0.73;0.40;;;2.80;99.90;;;;;;5150485;27;20122;-82
2022/03/10 08:06:16;;;;;;;0.20;0.20;;;2.80;99.90;;;;;;5100584;27;20075;-81
2022/03/10 08:08:43;;;;;;;0.20;0.20;;;2.90;99.90;;;;;;5117175;27;20047;-80
2022/03/10 08:11:11;;;;;;;0.25;0.25;;;3.00;99.90;;;;;;5116643;27;20492;-82
2022/03/10 08:13:37;;;;;;;0.20;0.20;;;3.10;99.90;;;;;;5133987;27;20039;-81
2022/03/10 08:16:04;;;;;;;0.30;0.30;;;3.10;99.90;;;;;;5106400;28;20511;-80
2022/03/10 08:18:31;;;;;;;0.20;0.20;;;3.30;99.90;;;;;;5096275;28;20054;-81
2022/03/10 08:20:59;;;;;;;0.20;0.20;;;3.40;99.90;;;;;;5081133;28;20036;-82
2022/03/10 08:23:26;;;;;;;0.20;0.20;;;3.50;99.90;;;;;;5133391;28;20081;-82
2022/03/10 08:25:54;;;;;;;0.20;0.20;;;3.80;99.90;;;;;;5116696;28;20126;-80
2022/03/10 08:28:21;;;;;;;0.20;0.20;;;3.90;99.90;;;;;;5130669;28;20071;-81
2022/03/10 08:30:48;;;;;;;0.20;0.20;;;4.00;99.90;;;;;;5116227;28;20027;-82
2022/03/10 08:33:15;;;;;;;0.20;0.20;;;4.20;99.90;;;;;;5110396;28;20418;-80
2022/03/10 08:35:41;;;;;;;0.20;0.20;;;4.30;99.90;;;;;;5118708;28;20040;-80
2022/03/10 08:38:08;;;;;;;0.20;0.20;;;4.70;99.90;;;;;;5079479;28;20039;-81
2022/03/10 08:40:35;;;;;;;0.20;0.20;;;4.50;99.90;;;;;;5091404;28;20032;-80
2022/03/10 08:43:02;;;;;;;0.20;0.20;;;4.60;99.90;;;;;;5125201;28;20840;-81
2022/03/10 08:45:30;;;;;;;0.20;0.20;;;4.80;99.90;;;;;;5122096;28;20122;-80
2022/03/10 08:47:57;;;;;;;0.20;0.20;;;4.90;99.90;;;;;;5083110;28;20082;-81
2022/03/10 08:50:25;;;;;;;0.20;0.20;;;5.10;99.90;;;;;;5095726;28;20082;-89
2022/03/10 08:52:52;;;;;;;0.13;0.13;;;5.20;99.90;;;;;;5112936;28;20555;-87
2022/03/10 08:55:19;;;;;;;0.25;0.25;;;5.30;99.90;;;;;;5107038;28;20039;-88
2022/03/10 08:57:47;;;;;;;0.43;0.43;;;5.50;99.90;;;;;;5093850;28;20047;-86
2022/03/10 09:00:15;;;;;;;0.20;0.20;;;5.70;99.90;;;;;;5127422;28;20043;-86
2022/03/10 09:02:44;;;;;;;0.20;0.20;;;5.80;99.90;;;;;;5115677;28;20039;-87
2022/03/10 09:05:11;;;;;;;0.30;0.30;;;5.90;99.90;;;;;;5081272;28;20403;-84
2022/03/10 09:07:38;;;;;;;0.30;0.30;;;6.00;99.90;;;;;;5105915;28;20099;-88
2022/03/10 09:10:05;;;;;;;0.40;0.40;;;6.10;99.90;;;;;;5096199;28;20071;-84
2022/03/10 09:12:31;;;;;;;2.08;0.32;;;6.20;99.90;;;;;;5084495;28;20043;-84
2022/03/10 09:14:58;;;;;;;0.20;0.20;;;6.40;99.90;;;;;;5088890;28;20123;-88
2022/03/10 09:17:25;;;;;;;0.10;0.10;;;6.50;99.90;;;;;;5097827;28;20035;-89
2022/03/10 09:19:53;;;;;;;0.20;0.20;;;6.70;99.90;;;;;;5096080;28;20039;-89
2022/03/10 09:22:22;;;;;;;0.13;0.13;;;7.00;99.90;;;;;;5096048;28;20036;-84
2022/03/10 09:24:49;;;;;;;0.10;0.10;;;7.00;99.90;;;;;;5080286;28;20036;-85
2022/03/10 09:27:16;;;;;;;0.10;0.10;;;7.10;99.90;;;;;;5079347;28;20039;-84
2022/03/10 09:29:43;;;;;;;0.25;0.25;;;7.40;99.90;;;;;;5096181;28;20048;-89
2022/03/10 09:32:13;;;;;;;0.20;0.20;;;7.30;99.90;;;;;;5097167;28;20077;-91
2022/03/10 09:34:40;;;;;;;0.20;0.20;;;7.50;99.90;;;;;;5095432;28;20032;-89
2022/03/10 09:37:07;;;;;;;0.10;0.10;;;7.60;99.90;;;;;;5113996;28;20036;-89
2022/03/10 09:39:33;;;;;;;0.10;0.10;;;7.70;99.90;;;;;;5096977;28;20062;-84
2022/03/10 09:42:04;;;;;;;0.10;0.10;;;8.40;99.90;;;;;;5132672;28;20040;-83
2022/03/10 09:44:33;;;;;;;0.10;0.10;;;8.00;99.90;;;;;;5099769;28;20039;-88
2022/03/10 09:47:03;;;;;;;0.30;0.30;;;8.20;99.90;;;;;;5120690;27;20036;-85
2022/03/10 09:49:35;;;;;;;0.10;0.10;;;8.40;99.90;;;;;;5117166;28;20404;-89
2022/03/10 09:52:02;;;;;;;0.10;0.10;;;8.40;99.90;;;;;;5115617;28;20428;-89
2022/03/10 09:54:29;;;;;;;0.10;0.10;;;8.60;99.90;;;;;;5132981;28;20399;-89
2022/03/10 09:56:56;;;;;;;0.22;0.22;;;8.70;99.90;;;;;;5115557;27;20118;-87
2022/03/10 09:59:26;;;;;;;0.10;0.10;;;8.80;99.90;;;;;;5106764;28;20081;-88
2022/03/10 10:01:54;;;;;;;0.20;0.20;;;8.90;99.90;;;;;;5109378;28;20510;-84
2022/03/10 10:04:24;;;;;;;0.10;0.10;;;9.10;99.50;;;;;;5121495;27;20483;-85
2022/03/10 10:07:05;;;;;;;0.22;0.22;;;9.20;99.90;;;;;;5118278;28;20416;-89
2022/03/10 10:09:53;;;;;;;0.20;0.20;;;9.40;98.80;;;;;;5116866;27;20063;-88
2022/03/10 10:12:28;;;;;;;0.10;0.10;;;9.50;97.80;;;;;;5129397;28;20031;-89
2022/03/10 10:14:56;;;;;;;0.10;0.10;;;9.60;98.80;;;;;;5121326;28;20046;-88
2022/03/10 10:17:32;;;;;;;0.10;0.10;;;9.70;95.80;;;;;;5094499;27;20039;-83
2022/03/10 10:19:59;;;;;;;;;;;9.80;96.00;;;;;;5129218;27;20479;-85
2022/03/10 10:22:28;;;;;;;0.10;0.10;;;9.90;94.90;;;;;;5098753;28;20391;-89
2022/03/10 10:25:02;;;;;;;0.20;0.20;;;10.00;94.60;;;;;;5117268;28;20047;-83
2022/03/10 10:27:34;;;;;;;0.20;0.20;;;10.10;95.40;;;;;;5099740;28;20047;-88
2022/03/10 10:30:06;;;;;;;0.00;0.00;;;10.20;94.30;;;;;;5115405;28;20055;-84
2022/03/10 10:32:35;;;;;;;0.80;0.32;;;10.30;94.60;;;;;;5131510;28;20048;-88
2022/03/10 10:35:12;;;;;;;0.20;0.20;;;10.40;92.00;;;;;;5098318;28;20035;-84
2022/03/10 10:37:42;;;;;;;0.10;0.10;;;10.50;92.80;;;;;;5098581;28;20048;-89
2022/03/10 10:40:10;;;;;;;0.10;0.10;;;10.60;93.30;;;;;;5113623;28;20452;-89
2022/03/10 10:42:39;;;;;;;0.10;0.10;;;10.80;92.50;;;;;;5113316;28;20039;-89
2022/03/10 10:45:32;;;;;;;0.10;0.10;;;10.90;90.60;;;;;;5115985;28;20039;-84
2022/03/10 10:48:04;;;;;;;0.00;0.00;;;11.00;91.30;;;;;;5131430;28;20048;-88
2022/03/10 10:50:32;;;;;;;0.20;0.20;;;11.00;88.40;;;;;;5095412;28;20039;-88
2022/03/10 10:52:59;;;;;;;0.10;0.10;;;11.10;87.00;;;;;;5094772;28;20036;-83
2022/03/10 10:55:37;;;;;;;0.10;0.10;;;11.20;88.90;;;;;;5114514;28;20042;-87
2022/03/10 10:58:09;;;;;;;0.10;0.10;;;11.30;90.10;;;;;;5130250;28;20040;-83
2022/03/10 11:00:44;;;;;;;0.10;0.10;;;11.30;84.30;;;;;;5131152;28;20036;-87
2022/03/10 11:03:23;;;;;;;0.20;0.20;;;11.40;85.90;;;;;;5147988;28;20430;-87
2022/03/10 11:05:51;;;;;;;0.10;0.10;;;11.50;81.40;;;;;;5150960;28;20040;-87
2022/03/10 11:08:20;;;;;;;0.10;0.10;;;11.60;83.60;;;;;;5147779;28;20043;-84
2022/03/10 11:10:47;;;;;;;0.10;0.10;;;11.70;84.70;;;;;;5130579;28;20042;-87
2022/03/10 11:13:14;;;;;;;0.50;0.10;;;11.80;79.80;;;;;;5133174;28;20107;-87
2022/03/10 11:15:42;;;;;;;0.30;0.30;;;11.90;82.30;;;;;;5114211;28;20040;-84
2022/03/10 11:18:10;;;;;;;0.10;0.10;;;12.00;80.70;;;;;;5114324;28;20035;-89
2022/03/10 11:20:40;;;;;;;0.00;0.00;;;12.00;75.70;;;;;;5097686;28;20042;-86
2022/03/10 11:23:37;;;;;;;0.30;0.20;;;12.10;73.20;;;;;;5113886;28;20071;-84
2022/03/10 11:26:13;;;;;;;0.00;0.00;;;12.20;76.70;;;;;;5113715;28;20039;-85
2022/03/10 11:28:45;;;;;;;0.00;0.00;;;12.20;71.70;;;;;;5113939;28;20105;-84
2022/03/10 11:31:14;;;;;;;0.08;0.08;;;12.20;71.60;;;;;;5113490;28;20492;-85
2022/03/10 11:33:41;;;;;;;0.20;0.13;;;12.20;69.70;;;;;;5113849;28;20039;-90
2022/03/10 11:36:37;;;;;;;0.60;0.28;;;12.20;70.00;;;;;;5114295;28;20374;-89
2022/03/10 11:39:08;;;;;;;0.52;0.28;;;12.20;70.80;;;;;;5080548;28;20051;-89
2022/03/10 11:41:46;;;;;;;0.10;0.10;;;12.20;68.20;;;;;;5113907;28;20099;-85
2022/03/10 11:44:19;;;;;;;0.00;0.00;;;12.20;72.70;;;;;;5081092;28;20035;-90
2022/03/10 11:46:57;;;;;;;0.10;0.10;;;12.30;72.40;;;;;;5114036;28;20043;-85
2022/03/10 11:49:38;;;;;;;0.10;0.10;;;12.30;70.30;;;;;;5113927;28;20058;-89
2022/03/10 11:52:21;;;;;;;0.57;0.43;;;12.40;69.30;;;;;;5114138;28;20458;-90
2022/03/10 11:55:08;;;;;;;0.00;0.00;;;12.50;68.80;;;;;;5119857;28;20028;-89
2022/03/10 11:58:04;;;;;;;0.00;0.00;;;12.50;67.30;;;;;;5120125;27;20031;-84
2022/03/10 12:00:48;;;;;;;0.03;0.03;;;12.60;70.10;;;;;;5142828;28;20036;-83
2022/03/10 12:03:24;;;;;;;0.20;0.10;;;12.60;69.40;;;;;;5131872;27;20119;-90
2022/03/10 12:05:55;;;;;;;;;;;12.70;67.10;;;;;;5127810;28;20032;-84
2022/03/10 12:08:24;;;;;;;0.10;0.10;;;12.70;68.80;;;;;;5147561;28;19916;-84
2022/03/10 12:10:51;;;;;;;0.10;0.10;;;12.80;67.70;;;;;;5122583;27;20031;-87
2022/03/10 12:13:37;;;;;;;0.00;0.00;;;12.70;66.30;;;;;;5119756;28;20038;-88
2022/03/10 12:16:27;;;;;;;0.00;0.00;;;12.70;67.20;;;;;;5113870;28;20043;-84
2022/03/10 12:18:55;;;;;;;0.00;0.00;;;12.80;67.10;;;;;;5129755;28;20083;-85
2022/03/10 12:21:29;;;;;;;0.98;0.22;;;12.90;67.20;;;;;;5097364;28;20047;-89
2022/03/10 12:23:58;;;;;;;0.10;0.10;;;13.00;65.40;;;;;;5113463;28;20070;-85
2022/03/10 12:26:31;;;;;;;0.00;0.00;;;13.00;67.10;;;;;;5114741;28;20054;-89
2022/03/10 12:29:06;;;;;;;0.45;0.20;;;13.10;65.20;;;;;;5113879;28;20048;-89
2022/03/10 12:31:35;;;;;;;0.25;0.20;;;13.10;68.40;;;;;;5130374;28;20044;-90
2022/03/10 12:34:09;;;;;;;0.10;0.10;;;13.10;67.80;;;;;;5113374;28;20446;-85
2022/03/10 12:36:36;;;;;;;0.17;0.17;;;13.10;68.90;;;;;;5113730;28;20039;-85
2022/03/10 12:39:03;;;;;;;0.00;0.00;;;13.20;67.70;;;;;;5112986;28;20454;-89
2022/03/10 12:41:36;;;;;;;0.25;0.25;;;13.20;64.00;;;;;;5114299;28;20035;-90
2022/03/10 12:44:06;;;;;;;0.40;0.20;;;13.20;65.00;;;;;;5113981;28;20051;-90
2022/03/10 12:46:35;;;;;;;0.00;0.00;;;13.20;64.00;;;;;;5097566;28;20086;-85
2022/03/10 12:49:26;;;;;;;0.10;0.10;;;13.20;63.80;;;;;;5112363;28;20108;-90
2022/03/10 12:51:58;;;;;;;0.03;0.03;;;13.20;64.90;;;;;;5112741;28;20400;-89
2022/03/10 12:54:25;;;;;;;0.10;0.10;;;13.20;65.60;;;;;;5096868;28;20035;-85
2022/03/10 12:57:00;;;;;;;0.22;0.10;;;13.30;65.00;;;;;;5112883;28;20054;-91
2022/03/10 12:59:34;;;;;;;0.10;0.10;;;13.30;64.00;;;;;;5113435;28;20035;-91
2022/03/10 13:02:11;;;;;;;0.00;0.00;;;13.30;65.00;;;;;;5097015;28;20046;-90
2022/03/10 13:04:49;;;;;;;0.10;0.10;;;13.30;65.80;;;;;;5113316;28;20038;-85
2022/03/10 13:07:16;;;;;;;0.00;0.00;;;13.40;66.00;;;;;;5096679;28;20545;-90
2022/03/10 13:10:00;;;;;;;0.00;0.00;;;13.40;66.10;;;;;;5112792;28;20081;-85